South Chelmsford, Massachusetts
Current Conditions -  °F | °C
As of 1:56 AM on Saturday 01 Nov 2014 (Local Time) from KBED Reporting Station
Overcast Overcast  
Wind Chill: 37°   Ceiling: 9000
Heat Index: 42°   Visibility: 10mi
Dew Point: 35°   Wind: 8mph
Humidity: 76%   Direction: 360°N
Pressure: 29.93"   Gusts: NA
Location:  42.5915°N, 71.3555°W
Report Text: KBED 010556Z AUTO 36007KT 10SM OVC090 06/02 A2993 RMK AO2 SLP149 T00560017 10083 20056 55015 TSNO
Loading
Personal Weather Stations






























Interactive Weather Map
Tropical Storm Tracking
New forecast layout! Learn more

10-Day Weather Forecast

Advertisements
Track Severe Weather on mobile